Qiryat Bialik, Israel
Current Conditions -  °F | °C
As of 6:50 AM on Friday 19 Dec 2014 (Local Time) from LLSD Reporting Station
Clear Clear  
Wind Chill: 59°   Ceiling: Unl
Heat Index: 59°   Visibility: 6mi
Dew Point: 50°   Wind: 5mph
Humidity: 72%   Direction: 120°ESE
Pressure: 30.03"   Gusts: NA
Location:  32.83°N, 35.08°E
Report Text: LLSD 190350Z 12004KT CAVOK 15/10 Q1017
Loading
Personal Weather Stations






























Interactive Weather Map New forecast layout! Learn more

10-Day Weather Forecast

Advertisements
Track Severe Weather on mobile